Time;durP1;ratioP1;P1;durP2;ratioP2;P2;SDS_P1;SDS_P2;PMS_P1;PMS_P2;Temp;Humidity;BMP_temperature;BMP_pressure;BME280_temperature;BME280_humidity;BME280_pressure;Samples;Min_cycle;Max_cycle;Signal;HPM_P1;HPM_P2
2023/01/09 03:41:12;;;;;;;3.10;2.28;;;17.50;54.90;;;;;;5015956;28;20634;-81
2023/01/09 03:43:39;;;;;;;3.78;2.50;;;17.50;54.80;;;;;;5014873;28;20189;-81
2023/01/09 03:46:06;;;;;;;3.17;2.33;;;17.50;54.70;;;;;;5013489;28;20231;-81
2023/01/09 03:48:33;;;;;;;3.40;2.22;;;17.60;54.80;;;;;;5013641;28;20201;-81
2023/01/09 03:51:00;;;;;;;2.47;1.90;;;17.50;54.70;;;;;;5013673;28;20201;-81
2023/01/09 03:53:27;;;;;;;2.70;2.30;;;17.50;54.70;;;;;;5013908;28;20202;-82
2023/01/09 03:55:56;;;;;;;3.20;2.10;;;17.50;54.70;;;;;;5013784;28;20220;-82
2023/01/09 03:58:25;;;;;;;2.55;1.92;;;17.60;54.70;;;;;;5014944;28;20205;-82
2023/01/09 04:00:52;;;;;;;3.22;2.10;;;17.50;54.60;;;;;;5013027;28;20201;-81
2023/01/09 04:03:20;;;;;;;2.80;2.10;;;17.50;54.60;;;;;;5013181;28;20718;-81
2023/01/09 04:05:48;;;;;;;2.53;1.80;;;17.50;54.50;;;;;;5013292;28;20599;-82
2023/01/09 04:08:16;;;;;;;2.65;1.90;;;17.50;54.60;;;;;;5013635;28;20197;-82
2023/01/09 04:10:44;;;;;;;3.33;2.20;;;17.50;54.60;;;;;;5013717;28;20207;-82
2023/01/09 04:13:11;;;;;;;2.78;2.20;;;17.50;54.70;;;;;;5015021;28;20279;-81
2023/01/09 04:15:39;;;;;;;2.95;2.15;;;17.50;54.50;;;;;;5015824;28;20705;-81
2023/01/09 04:18:06;;;;;;;3.05;1.90;;;17.50;54.50;;;;;;5013728;28;20200;-81
2023/01/09 04:20:34;;;;;;;3.33;2.22;;;17.50;54.70;;;;;;5013535;28;20255;-82
2023/01/09 04:23:01;;;;;;;2.65;2.00;;;17.50;54.60;;;;;;5013235;28;20562;-82
2023/01/09 04:25:28;;;;;;;2.53;1.90;;;17.50;54.70;;;;;;5013101;28;20232;-82
2023/01/09 04:27:56;;;;;;;2.45;2.03;;;17.60;54.70;;;;;;5013345;28;20216;-82
2023/01/09 04:30:23;;;;;;;2.42;1.80;;;17.60;54.70;;;;;;5013079;28;20212;-82
2023/01/09 04:32:52;;;;;;;2.80;2.10;;;17.50;54.70;;;;;;5013095;28;20713;-82
2023/01/09 04:35:19;;;;;;;2.63;2.10;;;17.60;54.90;;;;;;5013311;28;20591;-82
2023/01/09 04:37:47;;;;;;;2.60;2.05;;;17.60;54.90;;;;;;5013069;28;20189;-82
2023/01/09 04:55:24;;;;;;;2.92;1.90;;;17.70;54.40;;;;;;5023828;28;20245;-83
2023/01/09 04:57:51;;;;;;;2.15;1.80;;;17.70;54.10;;;;;;5019679;28;20200;-83
2023/01/09 05:00:19;;;;;;;2.53;1.60;;;17.70;54.10;;;;;;5019770;28;20201;-83
2023/01/09 05:02:46;;;;;;;2.67;1.95;;;17.70;54.10;;;;;;5018758;28;20205;-83
2023/01/09 05:05:13;;;;;;;2.30;1.90;;;17.70;53.90;;;;;;5024370;28;20257;-82
2023/01/09 05:07:40;;;;;;;2.00;1.80;;;17.70;53.90;;;;;;5024180;28;20239;-81
2023/01/09 05:10:08;;;;;;;2.00;1.67;;;17.70;53.60;;;;;;5024598;28;20201;-82
2023/01/09 05:12:38;;;;;;;2.08;1.70;;;17.70;53.30;;;;;;5020774;28;20223;-82
2023/01/09 05:15:07;;;;;;;1.95;1.60;;;17.80;53.20;;;;;;5021866;28;20319;-81
2023/01/09 05:17:33;;;;;;;3.30;1.77;;;17.80;53.40;;;;;;5020769;28;20296;-82
2023/01/09 05:20:01;;;;;;;3.55;1.90;;;17.80;53.20;;;;;;5018797;28;20208;-82
2023/01/09 05:22:28;;;;;;;2.53;1.60;;;17.70;53.10;;;;;;5000678;28;20666;-82
2023/01/09 05:24:56;;;;;;;1.80;1.60;;;17.70;53.20;;;;;;5016343;28;20244;-81
2023/01/09 05:27:23;;;;;;;2.47;1.60;;;17.80;53.30;;;;;;5016245;28;20270;-81
2023/01/09 05:29:52;;;;;;;2.50;1.77;;;17.80;53.40;;;;;;5015884;28;20201;-82
2023/01/09 05:32:19;;;;;;;3.33;1.70;;;17.80;52.80;;;;;;5016092;28;20323;-82
2023/01/09 05:34:46;;;;;;;3.05;1.60;;;17.80;53.30;;;;;;5016584;28;20220;-82
2023/01/09 05:37:14;;;;;;;2.55;1.80;;;17.80;53.70;;;;;;5015834;28;20288;-82
2023/01/09 05:39:41;;;;;;;4.13;1.58;;;17.80;53.70;;;;;;5015935;28;20204;-81
2023/01/09 05:42:08;;;;;;;2.60;1.50;;;17.80;53.70;;;;;;5016063;28;20200;-81
2023/01/09 05:44:35;;;;;;;1.95;1.60;;;17.90;53.60;;;;;;5016445;28;20252;-82
2023/01/09 05:47:04;;;;;;;3.38;1.70;;;17.90;53.50;;;;;;5015744;28;20683;-82
2023/01/09 05:49:31;;;;;;;4.28;1.50;;;17.90;53.20;;;;;;5015680;28;20228;-82
2023/01/09 06:10:55;;;;;;;1.75;1.48;;;17.90;52.90;;;;;;4997304;28;20169;-81
2023/01/09 06:28:33;;;;;;;1.70;1.50;;;17.90;52.90;;;;;;4998661;28;20200;-81
2023/01/09 06:46:40;;;;;;;3.08;1.67;;;17.80;51.50;;;;;;4996326;28;20192;-80
2023/01/09 07:42:15;;;;;;;1.77;1.60;;;17.60;51.50;;;;;;4998955;28;20240;-79
2023/01/09 07:44:42;;;;;;;2.17;1.50;;;17.60;51.60;;;;;;4994760;28;20229;-79
2023/01/09 07:47:09;;;;;;;2.17;1.50;;;17.60;51.70;;;;;;4978292;28;20581;-79
2023/01/09 07:49:36;;;;;;;1.48;1.35;;;17.50;51.50;;;;;;5010226;28;20193;-79
2023/01/09 09:45:47;;;;;;;2.17;1.23;;;17.70;52.30;;;;;;4998168;28;20204;-79
2023/01/09 09:48:23;;;;;;;1.83;1.33;;;17.70;52.60;;;;;;5012662;28;20718;-79
2023/01/09 09:51:12;;;;;;;1.73;1.20;;;17.80;52.50;;;;;;5013055;28;20654;-79
2023/01/09 09:53:40;;;;;;;1.70;1.20;;;17.80;52.30;;;;;;4984394;28;20246;-79
2023/01/09 09:56:08;;;;;;;3.00;1.45;;;17.80;52.30;;;;;;5012867;28;20230;-79
2023/01/09 09:58:37;;;;;;;1.67;1.08;;;17.90;52.30;;;;;;5012647;28;20205;-79
2023/01/09 10:01:06;;;;;;;2.20;1.25;;;17.90;52.30;;;;;;4997314;28;20206;-79
2023/01/09 10:03:37;;;;;;;1.77;1.35;;;18.00;52.50;;;;;;4997361;28;20200;-79
2023/01/09 10:06:05;;;;;;;2.80;1.45;;;18.00;52.00;;;;;;5011919;28;20217;-79
2023/01/09 10:08:36;;;;;;;2.58;1.30;;;18.10;52.10;;;;;;4996597;28;20683;-79
2023/01/09 10:11:04;;;;;;;2.58;1.42;;;18.10;52.80;;;;;;4997329;28;20229;-79
2023/01/09 10:16:24;;;;;;;1.77;1.20;;;18.30;51.90;;;;;;4999006;28;20589;-79
2023/01/09 10:18:57;;;;;;;2.08;1.23;;;18.40;51.90;;;;;;5011733;28;20201;-79
2023/01/09 10:21:25;;;;;;;2.97;1.50;;;18.40;51.60;;;;;;5011366;28;20193;-79
2023/01/09 10:24:05;;;;;;;1.88;1.20;;;18.50;51.20;;;;;;5011442;28;20296;-79
2023/01/09 10:26:35;;;;;;;2.35;1.50;;;18.50;51.50;;;;;;5012143;28;20545;-79
2023/01/09 10:29:34;;;;;;;2.08;1.35;;;18.50;51.10;;;;;;5011461;28;20656;-79
2023/01/09 10:32:23;;;;;;;2.08;1.30;;;18.50;51.00;;;;;;4980693;28;20213;-79
2023/01/09 10:34:56;;;;;;;2.30;1.17;;;18.60;51.70;;;;;;5011796;28;20222;-79
2023/01/09 10:37:24;;;;;;;1.20;1.10;;;18.60;50.90;;;;;;5011609;28;20392;-79
2023/01/09 10:39:54;;;;;;;3.55;1.30;;;18.60;51.10;;;;;;4994904;28;20362;-79
2023/01/09 10:42:23;;;;;;;2.03;1.00;;;18.60;50.60;;;;;;5011213;28;20201;-79
2023/01/09 10:44:53;;;;;;;2.05;1.20;;;18.70;50.80;;;;;;4994241;28;20223;-79
2023/01/09 10:47:26;;;;;;;1.63;1.27;;;18.70;50.70;;;;;;5010971;28;20216;-79
2023/01/09 10:49:53;;;;;;;1.70;1.23;;;18.70;51.20;;;;;;4995742;28;20651;-79
2023/01/09 10:52:21;;;;;;;1.35;1.00;;;18.60;51.30;;;;;;5012885;28;20245;-79
2023/01/09 10:54:52;;;;;;;1.98;1.05;;;18.60;50.80;;;;;;4996647;28;20213;-79
2023/01/09 10:57:27;;;;;;;2.03;1.30;;;18.70;50.60;;;;;;5012289;28;20213;-79
2023/01/09 10:59:54;;;;;;;1.55;1.33;;;18.70;50.70;;;;;;5013201;28;20193;-80
2023/01/09 11:02:26;;;;;;;1.80;1.30;;;18.70;50.60;;;;;;5026270;28;20201;-79
2023/01/09 11:04:52;;;;;;;1.70;1.20;;;18.70;50.70;;;;;;4993171;28;20245;-78
2023/01/09 11:07:20;;;;;;;2.00;1.27;;;18.80;50.50;;;;;;5025262;28;20222;-79
2023/01/09 11:09:58;;;;;;;2.42;1.30;;;18.80;50.30;;;;;;5009200;28;20217;-79
2023/01/09 11:12:26;;;;;;;2.75;1.30;;;18.80;50.40;;;;;;5025148;28;20197;-79
2023/01/09 11:14:52;;;;;;;2.15;1.20;;;18.80;49.90;;;;;;5025557;28;20217;-79
2023/01/09 11:17:21;;;;;;;2.00;1.20;;;18.90;50.10;;;;;;5023694;28;20229;-79
2023/01/09 11:20:02;;;;;;;1.20;1.10;;;18.80;50.10;;;;;;5018791;28;20200;-79
2023/01/09 11:22:30;;;;;;;1.08;1.02;;;18.90;50.10;;;;;;5018412;28;20703;-79
2023/01/09 11:25:00;;;;;;;1.42;1.05;;;18.90;50.10;;;;;;4998599;28;20226;-79
2023/01/09 11:27:27;;;;;;;2.25;1.20;;;18.90;50.00;;;;;;5016077;28;20217;-79
2023/01/09 11:30:06;;;;;;;1.77;1.17;;;18.90;50.00;;;;;;5020330;28;20292;-79
2023/01/09 11:32:33;;;;;;;2.30;1.40;;;18.90;50.00;;;;;;5021129;28;20209;-80
2023/01/09 11:35:04;;;;;;;1.73;1.10;;;19.00;49.80;;;;;;5020151;28;20672;-80
2023/01/09 11:37:31;;;;;;;1.63;1.00;;;18.90;49.80;;;;;;5020651;28;20186;-80
2023/01/09 11:39:59;;;;;;;1.17;1.05;;;19.00;49.90;;;;;;5021051;28;20217;-80
2023/01/09 11:45:14;;;;;;;2.50;1.02;;;19.00;49.70;;;;;;5002533;28;20288;-80
2023/01/09 11:47:41;;;;;;;1.40;1.00;;;19.00;49.80;;;;;;5018345;28;20252;-80
2023/01/09 11:50:16;;;;;;;1.67;1.38;;;19.00;50.00;;;;;;5002441;28;20599;-80
2023/01/09 11:52:43;;;;;;;1.27;1.10;;;19.00;50.50;;;;;;5000858;28;20193;-80
2023/01/09 11:55:11;;;;;;;1.75;1.13;;;19.00;49.70;;;;;;5015820;28;20719;-80
2023/01/09 11:57:39;;;;;;;2.25;1.20;;;19.00;49.90;;;;;;4998799;28;20201;-80
2023/01/09 12:00:26;;;;;;;1.17;1.00;;;19.00;49.80;;;;;;5014393;28;20193;-80
2023/01/09 12:03:06;;;;;;;1.80;1.10;;;19.00;50.10;;;;;;5014485;28;20200;-80
2023/01/09 12:05:38;;;;;;;1.17;1.00;;;19.00;50.50;;;;;;4997786;28;20312;-80
2023/01/09 12:08:19;;;;;;;1.70;1.17;;;19.00;50.10;;;;;;5014433;28;20213;-79
2023/01/09 12:11:00;;;;;;;2.58;1.30;;;19.00;49.40;;;;;;5000213;28;20193;-79
2023/01/09 12:13:35;;;;;;;2.47;1.38;;;19.10;49.70;;;;;;5011542;28;20223;-79
2023/01/09 12:16:06;;;;;;;2.05;0.98;;;19.00;50.30;;;;;;4995233;28;20220;-79
2023/01/09 12:18:55;;;;;;;0.93;0.88;;;19.10;49.50;;;;;;4994113;28;20292;-79
2023/01/09 12:21:32;;;;;;;1.40;1.00;;;19.10;50.00;;;;;;5010993;28;20219;-79
2023/01/09 12:24:22;;;;;;;1.88;1.20;;;19.10;49.80;;;;;;4995098;28;20201;-79
2023/01/09 12:26:51;;;;;;;1.73;1.20;;;19.10;49.60;;;;;;4981559;28;20214;-79
2023/01/09 12:29:30;;;;;;;2.97;1.30;;;19.20;49.60;;;;;;4995519;28;20302;-79
2023/01/09 12:32:10;;;;;;;2.03;1.00;;;19.10;49.50;;;;;;5010209;28;20660;-79
2023/01/09 12:34:52;;;;;;;1.80;0.93;;;19.10;49.50;;;;;;5010819;28;20220;-79
2023/01/09 12:37:43;;;;;;;2.38;1.15;;;19.20;49.60;;;;;;4995260;28;20277;-79
2023/01/09 12:40:17;;;;;;;2.40;1.10;;;19.10;49.70;;;;;;5010182;28;20620;-79
2023/01/09 12:42:48;;;;;;;2.47;1.10;;;19.20;49.60;;;;;;5010975;28;20543;-79
2023/01/09 12:45:33;;;;;;;1.83;1.00;;;19.20;49.90;;;;;;4994153;28;20225;-79
2023/01/09 12:48:02;;;;;;;1.13;0.98;;;19.10;49.50;;;;;;4980208;28;20213;-79
2023/01/09 12:50:59;;;;;;;1.92;1.30;;;19.10;49.60;;;;;;4995866;28;20197;-79
2023/01/09 12:53:29;;;;;;;1.70;1.08;;;19.20;49.60;;;;;;5011489;28;20232;-79
2023/01/09 12:56:00;;;;;;;1.17;0.98;;;19.20;49.70;;;;;;4995471;28;20237;-79
2023/01/09 12:58:33;;;;;;;1.90;1.00;;;19.20;49.90;;;;;;5011991;28;20216;-79
2023/01/09 13:01:01;;;;;;;1.10;0.80;;;19.20;49.90;;;;;;4996222;28;20205;-79
2023/01/09 13:03:31;;;;;;;1.80;1.00;;;19.20;49.60;;;;;;4998615;28;20197;-79
2023/01/09 13:05:58;;;;;;;1.67;1.00;;;19.20;49.60;;;;;;5013573;28;20232;-79
2023/01/09 13:08:29;;;;;;;1.00;0.80;;;19.10;49.50;;;;;;4999047;28;20217;-79
2023/01/09 13:10:57;;;;;;;1.92;1.00;;;19.00;49.60;;;;;;4997898;28;20673;-79
2023/01/09 13:13:28;;;;;;;1.67;1.10;;;19.00;49.50;;;;;;4997527;28;20209;-79
2023/01/09 13:15:57;;;;;;;1.95;0.90;;;19.00;49.60;;;;;;4997501;28;20221;-79
2023/01/09 13:18:27;;;;;;;2.13;1.00;;;19.00;49.60;;;;;;5013134;28;20201;-79
2023/01/09 13:20:55;;;;;;;1.40;1.02;;;19.00;50.00;;;;;;5013689;28;20197;-79
2023/01/09 13:23:28;;;;;;;1.13;0.93;;;18.90;49.80;;;;;;4997592;28;20224;-79
2023/01/09 13:25:57;;;;;;;1.70;1.05;;;19.00;50.00;;;;;;5017045;28;20219;-79
2023/01/09 13:28:25;;;;;;;1.83;1.10;;;19.00;49.70;;;;;;5016104;28;20221;-79
2023/01/09 13:31:13;;;;;;;0.90;0.90;;;19.00;50.10;;;;;;5014062;28;20203;-79
2023/01/09 13:33:41;;;;;;;2.13;0.82;;;19.00;49.80;;;;;;5014770;28;20328;-80
2023/01/09 13:36:08;;;;;;;1.52;1.02;;;19.00;50.00;;;;;;5016560;28;20217;-79
2023/01/09 13:38:37;;;;;;;1.20;1.10;;;19.00;49.80;;;;;;5015692;28;20204;-79
2023/01/09 13:43:59;;;;;;;1.35;1.25;;;19.10;49.70;;;;;;4998595;28;20280;-79
2023/01/09 13:46:37;;;;;;;1.33;1.13;;;19.10;49.70;;;;;;4998236;28;20672;-79
2023/01/09 13:49:04;;;;;;;1.58;1.20;;;19.10;49.50;;;;;;5014185;28;20221;-79
2023/01/09 13:51:57;;;;;;;1.38;1.00;;;19.20;49.60;;;;;;5014285;28;20546;-79
2023/01/09 13:54:58;;;;;;;1.52;1.00;;;19.20;49.60;;;;;;5015107;28;20217;-79
2023/01/09 13:57:30;;;;;;;1.05;0.95;;;19.10;49.50;;;;;;4974999;28;20197;-79
2023/01/09 14:00:31;;;;;;;1.08;0.80;;;19.20;49.40;;;;;;4999142;28;20174;-79
2023/01/09 14:03:17;;;;;;;1.20;0.90;;;19.20;49.60;;;;;;4974726;28;20201;-79
2023/01/09 14:06:04;;;;;;;1.20;1.00;;;19.20;49.50;;;;;;4997415;28;20725;-79
2023/01/09 14:08:31;;;;;;;1.35;0.80;;;19.20;49.60;;;;;;4997822;28;20590;-79
2023/01/09 14:10:59;;;;;;;1.05;0.75;;;19.10;49.40;;;;;;4997310;28;20641;-79
2023/01/09 14:13:29;;;;;;;1.08;0.90;;;19.20;49.40;;;;;;5013740;28;20201;-79
2023/01/09 14:16:03;;;;;;;1.15;0.95;;;19.10;49.70;;;;;;5014170;28;20309;-80
2023/01/09 14:18:31;;;;;;;0.75;0.75;;;19.10;49.50;;;;;;5013009;28;20559;-79
2023/01/09 14:20:59;;;;;;;0.98;0.98;;;19.10;49.50;;;;;;5014102;28;20224;-80
2023/01/09 14:23:27;;;;;;;1.10;0.93;;;19.00;49.40;;;;;;5012972;28;20197;-80
2023/01/09 14:25:55;;;;;;;1.10;0.90;;;19.10;49.50;;;;;;5012629;28;20228;-80
2023/01/09 14:28:22;;;;;;;0.80;0.80;;;19.10;49.20;;;;;;4996102;28;20241;-80
2023/01/09 14:31:27;;;;;;;1.30;0.68;;;19.10;49.40;;;;;;4996372;28;20216;-79
2023/01/09 14:34:24;;;;;;;0.80;0.80;;;19.10;49.50;;;;;;5012719;28;20197;-79
2023/01/09 14:36:53;;;;;;;1.35;0.90;;;19.10;49.20;;;;;;4995930;28;20556;-79
2023/01/09 14:39:20;;;;;;;0.85;0.75;;;19.00;48.90;;;;;;4995996;28;20193;-79
2023/01/09 14:42:04;;;;;;;1.15;0.85;;;19.10;49.00;;;;;;5012227;28;20255;-79
2023/01/09 14:44:44;;;;;;;0.80;0.80;;;19.00;48.90;;;;;;5011810;28;20257;-79
2023/01/09 14:47:16;;;;;;;1.52;1.08;;;19.00;48.70;;;;;;4995604;28;20602;-79
2023/01/09 14:49:44;;;;;;;0.70;0.70;;;19.00;49.40;;;;;;4994557;28;20209;-79
2023/01/09 14:52:15;;;;;;;1.08;0.80;;;19.00;48.90;;;;;;5010985;28;20204;-79
2023/01/09 14:54:44;;;;;;;1.50;0.95;;;19.00;48.70;;;;;;4994857;28;20276;-79
2023/01/09 14:57:24;;;;;;;0.80;0.80;;;19.00;48.70;;;;;;5010765;28;20201;-79
2023/01/09 15:00:01;;;;;;;1.00;0.90;;;19.00;48.80;;;;;;5011185;28;20612;-79
2023/01/09 15:02:30;;;;;;;1.55;0.80;;;18.90;49.10;;;;;;4994219;28;20201;-79
2023/01/09 15:04:59;;;;;;;0.85;0.70;;;18.90;49.00;;;;;;4994400;28;20264;-79
2023/01/09 15:07:33;;;;;;;1.15;0.90;;;18.90;48.80;;;;;;5010520;28;20301;-79
2023/01/09 15:10:00;;;;;;;1.55;0.90;;;18.90;48.70;;;;;;5010727;28;20220;-79
2023/01/09 15:12:27;;;;;;;0.70;0.70;;;18.90;48.80;;;;;;4994114;28;20287;-79
2023/01/09 15:14:56;;;;;;;1.30;0.90;;;18.80;48.50;;;;;;4994643;28;20221;-79
2023/01/09 15:17:26;;;;;;;0.93;0.82;;;18.80;48.80;;;;;;4995341;28;20623;-79
2023/01/09 15:19:54;;;;;;;0.98;0.80;;;18.80;48.70;;;;;;5011728;28;20204;-79
2023/01/09 15:22:22;;;;;;;1.17;0.85;;;18.80;48.80;;;;;;4994688;28;20202;-79
2023/01/09 15:24:49;;;;;;;0.98;0.88;;;18.80;48.80;;;;;;4994201;28;20240;-79
2023/01/09 15:27:18;;;;;;;1.08;0.93;;;18.70;48.70;;;;;;5010564;28;20597;-79
2023/01/09 15:29:45;;;;;;;1.17;1.05;;;18.60;48.70;;;;;;4993837;28;20289;-79
2023/01/09 15:32:16;;;;;;;13.40;8.55;;;18.60;48.90;;;;;;5010125;28;20217;-79
2023/01/09 15:34:44;;;;;;;6.38;4.80;;;18.70;48.80;;;;;;5009991;28;20243;-79
2023/01/09 15:37:26;;;;;;;1.92;1.70;;;18.70;49.20;;;;;;4993642;28;20204;-79
2023/01/09 15:39:53;;;;;;;1.65;1.45;;;18.70;49.20;;;;;;5010802;28;20193;-79
2023/01/09 15:45:19;;;;;;;2.55;2.00;;;18.70;49.20;;;;;;4993825;28;20249;-79
2023/01/09 15:47:46;;;;;;;1.90;1.70;;;18.70;48.80;;;;;;5010249;28;20647;-79
2023/01/09 15:50:13;;;;;;;1.23;1.10;;;18.70;49.20;;;;;;5009956;28;20221;-79
2023/01/09 15:52:42;;;;;;;1.65;1.15;;;18.70;49.10;;;;;;4994768;28;20193;-79
2023/01/09 15:55:27;;;;;;;1.65;1.40;;;18.70;48.90;;;;;;4994866;28;20288;-79
2023/01/09 15:57:56;;;;;;;1.63;1.33;;;18.70;49.00;;;;;;4994165;28;20197;-79
2023/01/09 16:00:38;;;;;;;1.52;1.20;;;18.70;48.70;;;;;;5010113;28;20247;-79
2023/01/09 16:03:14;;;;;;;1.48;1.00;;;18.70;48.90;;;;;;5010260;28;20280;-79
2023/01/09 16:05:42;;;;;;;1.52;1.20;;;18.70;49.00;;;;;;4994376;28;20221;-79
2023/01/09 16:08:31;;;;;;;1.60;1.20;;;18.70;49.00;;;;;;4995245;28;20325;-79
2023/01/09 16:11:01;;;;;;;1.42;1.20;;;18.70;49.30;;;;;;4996023;28;20200;-79
2023/01/09 16:13:30;;;;;;;1.52;1.10;;;18.70;49.20;;;;;;4994384;28;20664;-79
2023/01/09 16:15:57;;;;;;;1.52;1.35;;;18.70;49.20;;;;;;4993910;28;20363;-79
2023/01/09 16:18:30;;;;;;;1.40;1.30;;;18.70;49.40;;;;;;4995113;28;20193;-79
2023/01/09 16:21:16;;;;;;;1.10;1.00;;;18.70;49.20;;;;;;5009888;28;20208;-79
2023/01/09 16:23:52;;;;;;;1.45;1.13;;;18.70;49.30;;;;;;4990305;28;20273;-79
2023/01/09 16:26:20;;;;;;;1.25;1.15;;;18.70;49.50;;;;;;5009920;28;20256;-79
2023/01/09 16:28:47;;;;;;;1.40;1.30;;;18.60;49.20;;;;;;4993601;28;20213;-79
2023/01/09 16:31:19;;;;;;;1.60;1.30;;;18.60;49.20;;;;;;5009653;28;20202;-79
2023/01/09 16:33:50;;;;;;;1.58;1.30;;;18.60;49.40;;;;;;4993314;28;20707;-79
2023/01/09 16:36:17;;;;;;;1.88;1.30;;;18.60;49.50;;;;;;4993357;28;20227;-79
2023/01/09 16:38:46;;;;;;;2.40;1.20;;;18.60;49.40;;;;;;4994334;28;20219;-79
2023/01/09 16:44:02;;;;;;;1.20;1.10;;;18.70;49.60;;;;;;4997684;28;20296;-79
2023/01/09 16:46:30;;;;;;;1.95;1.17;;;18.60;49.50;;;;;;5013557;28;20201;-79
2023/01/09 16:48:57;;;;;;;0.80;0.80;;;18.70;49.50;;;;;;5013383;28;20228;-79
2023/01/09 16:51:24;;;;;;;1.13;1.02;;;18.60;49.40;;;;;;5013257;28;20256;-79
2023/01/09 16:53:51;;;;;;;1.23;1.13;;;18.60;49.40;;;;;;5013145;28;20296;-80
2023/01/09 16:56:21;;;;;;;1.27;1.17;;;18.60;49.10;;;;;;5013434;28;20217;-79
2023/01/09 16:58:49;;;;;;;1.15;1.00;;;18.60;49.40;;;;;;4997130;28;20273;-79
2023/01/09 17:01:16;;;;;;;2.10;1.15;;;18.60;49.30;;;;;;5014083;28;20198;-79
2023/01/09 17:03:43;;;;;;;2.03;1.70;;;18.60;49.40;;;;;;4996574;28;20636;-80
2023/01/09 17:06:13;;;;;;;1.90;1.73;;;18.60;49.40;;;;;;5013078;28;20227;-79
2023/01/09 17:08:42;;;;;;;1.50;1.40;;;18.60;49.20;;;;;;5012848;28;20212;-79
2023/01/09 17:11:15;;;;;;;1.65;1.30;;;18.60;49.10;;;;;;5013045;28;20205;-79
2023/01/09 17:13:43;;;;;;;1.23;1.13;;;18.60;49.10;;;;;;5012684;28;20208;-79
2023/01/09 17:16:10;;;;;;;1.02;0.95;;;18.60;49.20;;;;;;4995950;28;20272;-79
2023/01/09 17:18:39;;;;;;;1.30;1.10;;;18.50;49.00;;;;;;4997283;28;20277;-79
2023/01/09 17:21:06;;;;;;;2.15;1.00;;;18.60;49.10;;;;;;5012911;28;20202;-79
2023/01/09 17:23:33;;;;;;;1.20;1.00;;;18.50;49.00;;;;;;5012500;28;20257;-79
2023/01/09 17:28:47;;;;;;;1.55;1.20;;;18.40;49.10;;;;;;4996483;28;20564;-79
2023/01/09 17:31:14;;;;;;;1.40;1.30;;;18.40;49.00;;;;;;5012845;28;20197;-79
2023/01/09 17:33:41;;;;;;;1.77;1.13;;;18.30;49.30;;;;;;4996977;28;20216;-79
2023/01/09 17:36:17;;;;;;;1.20;1.10;;;18.30;49.20;;;;;;4996701;28;20222;-79
2023/01/09 17:38:44;;;;;;;1.02;1.00;;;18.20;49.20;;;;;;5012495;28;20633;-79
2023/01/09 17:41:12;;;;;;;1.65;1.52;;;18.30;49.40;;;;;;4995969;28;20284;-79
2023/01/09 17:43:39;;;;;;;1.75;1.42;;;18.30;49.30;;;;;;4996755;28;20657;-79
2023/01/09 17:46:10;;;;;;;1.45;1.30;;;18.20;49.00;;;;;;5012804;28;20225;-79
2023/01/09 17:48:37;;;;;;;1.27;1.15;;;18.20;49.40;;;;;;5012326;28;20200;-79
2023/01/09 17:51:05;;;;;;;1.10;1.00;;;18.20;49.40;;;;;;5011926;28;20221;-79
2023/01/09 17:53:32;;;;;;;1.20;1.10;;;18.20;49.50;;;;;;5011157;28;20206;-79
2023/01/09 17:56:00;;;;;;;0.80;0.80;;;18.20;49.40;;;;;;5012400;28;20692;-80
2023/01/09 17:58:29;;;;;;;1.23;1.13;;;18.10;49.20;;;;;;5015340;28;20224;-80
2023/01/09 18:00:56;;;;;;;1.00;1.00;;;18.20;49.70;;;;;;5001639;28;20285;-80
2023/01/09 18:03:32;;;;;;;1.25;1.10;;;18.20;49.60;;;;;;5015337;28;20204;-80
2023/01/09 18:06:03;;;;;;;0.77;0.77;;;18.20;49.20;;;;;;5015369;28;20220;-80
2023/01/09 18:08:29;;;;;;;1.15;1.05;;;18.30;49.40;;;;;;5012521;28;20257;-80
2023/01/09 18:10:57;;;;;;;1.00;0.90;;;18.30;48.90;;;;;;5013996;28;20311;-81
2023/01/09 18:13:24;;;;;;;1.08;1.00;;;18.30;49.10;;;;;;5013418;28;20775;-84
2023/01/09 18:15:51;;;;;;;0.95;0.90;;;18.30;48.90;;;;;;4998077;28;20601;-82
2023/01/09 18:18:18;;;;;;;2.60;0.93;;;18.30;48.80;;;;;;5001852;28;20220;-81
2023/01/09 18:20:47;;;;;;;0.90;0.90;;;18.40;49.10;;;;;;5017338;28;20197;-83
2023/01/09 18:23:15;;;;;;;1.20;1.10;;;18.40;48.80;;;;;;5015182;28;20220;-81
2023/01/09 18:25:43;;;;;;;1.10;0.90;;;18.30;48.90;;;;;;4999415;28;20213;-81
2023/01/09 18:28:10;;;;;;;1.42;1.33;;;18.50;49.00;;;;;;4998769;28;20204;-81
2023/01/09 18:30:37;;;;;;;1.20;1.10;;;18.50;49.00;;;;;;5016838;28;20221;-82
2023/01/09 18:33:04;;;;;;;1.10;1.00;;;18.40;49.00;;;;;;5015610;28;20209;-82
2023/01/09 18:35:33;;;;;;;1.27;1.17;;;18.40;49.10;;;;;;5015968;28;20267;-81
2023/01/09 18:38:02;;;;;;;1.98;0.95;;;18.40;49.00;;;;;;4999553;28;20201;-81
2023/01/09 18:40:29;;;;;;;1.23;1.13;;;18.40;48.90;;;;;;5015815;28;20239;-82
2023/01/09 18:42:56;;;;;;;1.27;0.80;;;18.40;48.90;;;;;;4999541;28;20197;-82
2023/01/09 18:45:23;;;;;;;1.17;1.08;;;18.50;49.00;;;;;;5005574;28;20204;-82
2023/01/09 18:47:50;;;;;;;1.25;1.00;;;18.40;49.00;;;;;;5039103;28;20228;-81
2023/01/09 18:50:17;;;;;;;1.20;1.10;;;18.40;48.90;;;;;;5001068;28;20224;-81
2023/01/09 18:52:44;;;;;;;0.82;0.82;;;18.40;49.00;;;;;;5015476;28;20197;-81
2023/01/09 18:55:13;;;;;;;1.40;1.30;;;18.40;49.00;;;;;;5025919;28;20221;-83
2023/01/09 18:57:40;;;;;;;0.93;0.93;;;18.40;49.00;;;;;;4994747;28;20662;-81
2023/01/09 19:00:11;;;;;;;0.93;0.90;;;18.40;49.00;;;;;;4999222;28;20259;-82
2023/01/09 19:02:38;;;;;;;1.27;1.02;;;18.40;49.00;;;;;;4999375;28;20197;-82
2023/01/09 19:05:05;;;;;;;1.20;1.10;;;18.40;49.00;;;;;;5014593;28;20227;-81
2023/01/09 19:07:32;;;;;;;1.35;0.95;;;18.40;49.00;;;;;;5015239;28;20675;-83
2023/01/09 19:09:59;;;;;;;1.10;1.00;;;18.40;48.90;;;;;;5016097;28;20229;-82
2023/01/09 19:12:28;;;;;;;1.30;1.13;;;18.30;48.90;;;;;;4999636;28;20604;-83
2023/01/09 19:14:55;;;;;;;1.10;1.10;;;18.30;49.10;;;;;;5014594;28;20220;-82
2023/01/09 19:17:22;;;;;;;1.20;1.10;;;18.20;49.30;;;;;;5014306;28;20735;-82
2023/01/09 19:19:49;;;;;;;1.10;1.00;;;18.30;49.40;;;;;;4997660;28;20605;-82
2023/01/09 19:22:16;;;;;;;1.08;0.93;;;18.20;49.10;;;;;;5013840;28;20506;-82
2023/01/09 19:24:43;;;;;;;1.00;1.00;;;18.20;50.00;;;;;;5014467;28;20220;-82
2023/01/09 19:27:10;;;;;;;0.90;0.90;;;18.20;49.40;;;;;;5014550;28;20663;-82
2023/01/09 19:29:39;;;;;;;1.63;1.05;;;18.10;49.50;;;;;;5017933;28;20272;-82
2023/01/09 19:32:07;;;;;;;1.42;1.00;;;18.20;49.80;;;;;;5012883;28;20504;-82
2023/01/09 19:34:35;;;;;;;2.40;1.27;;;18.20;49.60;;;;;;5017199;28;20290;-82
2023/01/09 19:37:02;;;;;;;3.08;1.70;;;18.20;49.90;;;;;;5018353;28;20204;-82
2023/01/09 19:39:31;;;;;;;3.38;1.40;;;18.20;49.90;;;;;;5015607;28;20200;-82
2023/01/09 19:41:58;;;;;;;3.55;1.40;;;18.20;50.10;;;;;;5015305;28;20200;-82
2023/01/09 19:44:26;;;;;;;2.75;1.48;;;18.20;50.20;;;;;;4998683;28;20775;-82
2023/01/09 19:46:55;;;;;;;2.95;1.58;;;18.10;50.30;;;;;;5014817;28;20643;-81
2023/01/09 19:49:21;;;;;;;4.75;1.45;;;18.20;50.30;;;;;;5017834;28;20223;-82
2023/01/09 19:51:49;;;;;;;1.92;1.20;;;18.20;50.60;;;;;;5015349;28;20336;-82
2023/01/09 19:54:17;;;;;;;3.22;1.70;;;18.20;50.70;;;;;;5014681;28;20211;-82
2023/01/09 19:56:45;;;;;;;3.85;3.35;;;18.30;51.30;;;;;;4997583;28;20220;-82
2023/01/09 19:59:13;;;;;;;5.90;3.70;;;18.30;52.00;;;;;;5012458;28;20224;-81
2023/01/09 20:01:41;;;;;;;5.90;3.83;;;18.30;52.80;;;;;;5010728;28;20239;-82
2023/01/09 20:04:13;;;;;;;4.05;2.30;;;18.30;51.60;;;;;;5014019;28;20197;-81
2023/01/09 20:06:42;;;;;;;4.07;2.63;;;18.40;52.10;;;;;;5012195;28;20313;-81
2023/01/09 20:09:11;;;;;;;3.88;2.38;;;18.40;51.70;;;;;;5013570;28;20204;-81
2023/01/09 20:11:39;;;;;;;2.83;2.20;;;18.30;51.40;;;;;;5014743;28;20220;-81
2023/01/09 20:14:06;;;;;;;2.95;2.15;;;18.30;51.40;;;;;;5014206;28;20614;-81
2023/01/09 20:16:34;;;;;;;2.95;1.90;;;18.30;51.50;;;;;;5014168;28;20311;-82
2023/01/09 20:19:02;;;;;;;2.65;1.92;;;18.30;51.40;;;;;;5012186;28;20193;-81
2023/01/09 20:21:31;;;;;;;1.95;1.50;;;18.30;51.40;;;;;;5007369;28;20197;-81
2023/01/09 20:23:59;;;;;;;3.13;1.95;;;18.20;51.40;;;;;;5013583;28;20553;-81
2023/01/09 20:26:27;;;;;;;2.47;1.60;;;18.20;51.40;;;;;;5009070;28;20201;-81
2023/01/09 20:28:54;;;;;;;2.17;1.50;;;18.20;51.40;;;;;;5010672;28;20209;-81
2023/01/09 20:31:22;;;;;;;3.10;1.70;;;18.10;51.20;;;;;;4995144;28;20213;-81
2023/01/09 20:33:49;;;;;;;4.07;1.63;;;18.10;51.40;;;;;;5015389;28;20635;-82
2023/01/09 20:36:17;;;;;;;2.13;1.63;;;18.10;51.40;;;;;;4997106;28;20228;-81
2023/01/09 20:38:46;;;;;;;2.47;1.63;;;18.10;51.40;;;;;;5013901;28;20197;-81
2023/01/09 20:41:21;;;;;;;2.08;1.50;;;18.10;51.40;;;;;;5012690;28;20196;-81
2023/01/09 20:43:48;;;;;;;3.13;2.25;;;18.10;51.90;;;;;;4997341;28;20211;-81
2023/01/09 20:46:16;;;;;;;8.68;4.72;;;18.20;52.20;;;;;;5013353;28;20221;-81
2023/01/09 20:48:43;;;;;;;3.20;2.30;;;18.20;53.10;;;;;;5029843;28;20196;-81
2023/01/09 20:51:10;;;;;;;3.70;2.20;;;18.20;51.80;;;;;;5011734;28;20205;-81
2023/01/09 20:53:37;;;;;;;3.13;2.13;;;18.20;51.80;;;;;;5011955;28;20215;-81